createdAt,value
2019-03-10T00:01:47.091Z,3.52
2019-03-10T00:04:13.820Z,3.40
2019-03-10T00:06:40.642Z,3.42
2019-03-10T00:09:08.387Z,3.20
2019-03-10T00:11:35.716Z,3.50
2019-03-10T00:14:02.412Z,3.27
2019-03-10T00:16:29.208Z,3.80
2019-03-10T00:18:56.054Z,2.90
2019-03-10T00:21:22.715Z,3.05
2019-03-10T00:23:49.464Z,3.08
2019-03-10T00:26:16.121Z,3.10
2019-03-10T00:28:42.815Z,3.62
2019-03-10T00:31:09.508Z,2.75
2019-03-10T00:33:36.157Z,2.85
2019-03-10T00:36:02.814Z,2.60
2019-03-10T00:38:35.841Z,2.60
2019-03-10T00:41:12.048Z,2.55
2019-03-10T00:44:02.100Z,2.40
2019-03-10T00:46:55.241Z,2.47
2019-03-10T00:49:40.799Z,2.50
2019-03-10T00:52:20.275Z,2.47
2019-03-10T00:54:47.040Z,2.90
2019-03-10T00:57:13.670Z,2.83
2019-03-10T00:59:40.458Z,2.80
2019-03-10T01:02:07.163Z,2.60
2019-03-10T01:04:34.753Z,2.65
2019-03-10T01:07:01.951Z,2.37
2019-03-10T01:09:28.806Z,2.80
2019-03-10T01:11:55.409Z,2.75
2019-03-10T01:14:22.077Z,2.45
2019-03-10T01:16:49.114Z,2.72
2019-03-10T01:19:16.628Z,2.52
2019-03-10T01:21:44.638Z,2.90
2019-03-10T01:24:11.363Z,2.70
2019-03-10T01:26:38.047Z,2.58
2019-03-10T01:29:05.678Z,3.30
2019-03-10T01:31:45.199Z,2.90
2019-03-10T01:34:37.703Z,2.90
2019-03-10T01:37:04.448Z,2.30
2019-03-10T01:39:31.119Z,2.92
2019-03-10T01:41:57.814Z,2.10
2019-03-10T01:44:24.535Z,2.40
2019-03-10T01:46:51.172Z,2.95
2019-03-10T01:49:17.807Z,2.20
2019-03-10T01:51:44.550Z,2.50
2019-03-10T01:54:11.251Z,2.22
2019-03-10T01:56:37.906Z,2.17
2019-03-10T01:59:04.620Z,2.40
2019-03-10T02:01:31.312Z,2.00
2019-03-10T02:03:57.937Z,2.60
2019-03-10T02:06:24.695Z,2.47
2019-03-10T02:08:51.335Z,2.50
2019-03-10T02:11:18.032Z,2.52
2019-03-10T02:13:44.727Z,2.55
2019-03-10T02:16:11.450Z,2.37
2019-03-10T02:18:38.155Z,2.40
2019-03-10T02:21:04.885Z,2.70
2019-03-10T02:23:31.515Z,2.77
2019-03-10T02:25:58.208Z,2.20
2019-03-10T02:28:24.929Z,2.47
2019-03-10T02:30:51.693Z,2.27
2019-03-10T02:33:18.432Z,2.12
2019-03-10T02:35:45.239Z,2.42
2019-03-10T02:38:11.859Z,2.27
2019-03-10T02:40:38.549Z,3.17
2019-03-10T02:43:05.224Z,1.90
2019-03-10T02:45:31.937Z,2.27
2019-03-10T02:47:58.638Z,2.75
2019-03-10T02:50:25.358Z,2.20
2019-03-10T02:52:51.959Z,2.27
2019-03-10T02:55:18.660Z,2.30
2019-03-10T02:57:45.357Z,2.10
2019-03-10T03:00:12.893Z,2.42
2019-03-10T03:02:39.631Z,2.12
2019-03-10T03:05:07.843Z,2.47
2019-03-10T03:07:35.171Z,2.65
2019-03-10T03:10:01.898Z,2.55
2019-03-10T03:12:28.650Z,2.75
2019-03-10T03:14:55.365Z,2.55
2019-03-10T03:17:22.029Z,2.52
2019-03-10T03:19:48.735Z,2.70
2019-03-10T03:22:15.473Z,2.67
2019-03-10T03:24:42.175Z,2.52
2019-03-10T03:27:08.922Z,2.75
2019-03-10T03:29:36.548Z,2.95
2019-03-10T03:32:03.232Z,2.70
2019-03-10T03:34:30.030Z,2.50
2019-03-10T03:36:56.862Z,2.27
2019-03-10T03:39:26.763Z,2.47
2019-03-10T03:41:53.465Z,2.30
2019-03-10T03:44:20.086Z,2.70
2019-03-10T03:46:46.690Z,2.52
2019-03-10T03:49:13.401Z,2.45
2019-03-10T03:51:41.002Z,2.42
2019-03-10T03:54:08.734Z,2.52
2019-03-10T03:56:35.412Z,2.72
2019-03-10T03:59:02.043Z,3.17
2019-03-10T04:01:45.623Z,2.60
2019-03-10T04:04:12.347Z,2.40
2019-03-10T04:06:39.094Z,2.92
2019-03-10T04:09:07.891Z,2.70
2019-03-10T04:11:34.624Z,2.80
2019-03-10T04:14:01.222Z,3.17
2019-03-10T04:16:27.925Z,2.85
2019-03-10T04:18:54.585Z,2.75
2019-03-10T04:21:21.354Z,2.50
2019-03-10T04:23:48.038Z,2.33
2019-03-10T04:26:14.786Z,3.10
2019-03-10T04:28:41.393Z,3.08
2019-03-10T04:31:08.088Z,2.60
2019-03-10T04:33:34.767Z,2.87
2019-03-10T04:36:01.440Z,2.80
2019-03-10T04:38:28.154Z,2.72
2019-03-10T04:40:54.826Z,3.37
2019-03-10T04:43:21.464Z,2.70
2019-03-10T04:45:48.127Z,2.77
2019-03-10T04:48:14.864Z,2.80
2019-03-10T04:50:41.486Z,2.87
2019-03-10T04:53:08.144Z,2.67
2019-03-10T04:55:39.371Z,2.65
2019-03-10T04:58:13.681Z,2.30
2019-03-10T05:00:42.168Z,2.90
2019-03-10T05:03:08.902Z,2.75
2019-03-10T05:05:35.524Z,2.85
2019-03-10T05:08:02.184Z,2.77
2019-03-10T05:10:29.827Z,2.52
2019-03-10T05:12:56.459Z,2.90
2019-03-10T05:15:23.128Z,2.60
2019-03-10T05:17:50.835Z,2.67
2019-03-10T05:20:17.553Z,3.00
2019-03-10T05:22:44.282Z,2.62
2019-03-10T05:25:13.414Z,3.65
2019-03-10T05:27:40.016Z,3.08
2019-03-10T05:30:08.622Z,2.90
2019-03-10T05:32:35.290Z,3.17
2019-03-10T05:35:02.030Z,2.80
2019-03-10T05:37:28.730Z,3.15
2019-03-10T05:39:56.580Z,3.20
2019-03-10T05:42:23.306Z,3.45
2019-03-10T05:44:49.949Z,3.42
2019-03-10T05:47:16.687Z,4.12
2019-03-10T05:49:43.293Z,4.08
2019-03-10T05:52:09.979Z,4.03
2019-03-10T05:54:36.651Z,3.62
2019-03-10T05:57:03.321Z,4.20
2019-03-10T05:59:29.972Z,3.80
2019-03-10T06:01:56.792Z,4.00
2019-03-10T06:04:23.397Z,3.55
2019-03-10T06:06:50.164Z,4.50
2019-03-10T06:09:16.861Z,4.55
2019-03-10T06:11:44.430Z,4.30
2019-03-10T06:14:11.101Z,4.28
2019-03-10T06:16:37.819Z,4.60
2019-03-10T06:19:04.423Z,4.15
2019-03-10T06:21:31.105Z,4.12
2019-03-10T06:23:57.790Z,3.52
2019-03-10T06:26:24.492Z,4.00
2019-03-10T06:28:51.189Z,4.45
2019-03-10T06:31:19.006Z,5.60
2019-03-10T06:33:45.617Z,4.15
2019-03-10T06:36:12.323Z,4.00
2019-03-10T06:38:39.002Z,4.22
2019-03-10T06:41:05.811Z,4.50
2019-03-10T06:43:32.449Z,4.53
2019-03-10T06:45:59.197Z,4.30
2019-03-10T06:48:25.875Z,4.03
2019-03-10T06:50:52.565Z,5.03
2019-03-10T06:53:19.272Z,5.30
2019-03-10T06:55:45.906Z,4.70
2019-03-10T06:58:12.541Z,4.85
2019-03-10T07:00:39.256Z,4.90
2019-03-10T07:03:05.982Z,4.47
2019-03-10T07:05:32.641Z,4.50
2019-03-10T07:07:59.422Z,4.50
2019-03-10T07:10:26.153Z,5.05
2019-03-10T07:12:53.635Z,5.78
2019-03-10T07:15:20.342Z,4.80
2019-03-10T07:17:47.343Z,5.03
2019-03-10T07:20:16.607Z,5.87
2019-03-10T07:22:43.442Z,4.50
2019-03-10T07:25:10.064Z,4.58
2019-03-10T07:27:41.362Z,4.40
2019-03-10T07:30:27.186Z,3.60
2019-03-10T07:32:55.726Z,4.70
2019-03-10T07:35:40.875Z,4.75
2019-03-10T07:38:09.397Z,4.17
2019-03-10T07:40:54.416Z,4.25
2019-03-10T07:43:28.501Z,4.47
2019-03-10T07:46:02.735Z,3.87
2019-03-10T07:48:34.030Z,4.37
2019-03-10T07:51:11.187Z,3.20
2019-03-10T07:53:39.719Z,4.42
2019-03-10T07:56:20.214Z,3.98
2019-03-10T07:58:54.544Z,3.70
2019-03-10T08:01:28.530Z,3.90
2019-03-10T08:04:02.852Z,3.55
2019-03-10T08:06:43.286Z,3.85
2019-03-10T08:09:24.139Z,3.98
2019-03-10T08:12:04.892Z,3.22
2019-03-10T08:14:33.531Z,3.50
2019-03-10T08:17:01.999Z,4.00
2019-03-10T08:19:46.013Z,3.27
2019-03-10T08:22:29.494Z,3.08
2019-03-10T08:24:57.983Z,3.33
2019-03-10T08:27:27.520Z,3.00
2019-03-10T08:29:59.179Z,3.30
2019-03-10T08:32:44.189Z,3.33
2019-03-10T08:35:27.768Z,3.15
2019-03-10T08:38:08.260Z,3.37
2019-03-10T08:40:55.351Z,3.25
2019-03-10T08:43:29.828Z,3.10
2019-03-10T08:46:14.697Z,2.55
2019-03-10T08:48:43.134Z,3.45
2019-03-10T08:51:17.546Z,3.17
2019-03-10T08:53:48.491Z,3.00
2019-03-10T08:56:19.753Z,3.05
2019-03-10T08:59:04.794Z,2.63
2019-03-10T09:01:39.064Z,3.25
2019-03-10T09:04:13.079Z,2.87
2019-03-10T09:06:56.696Z,3.60
2019-03-10T09:09:28.060Z,3.15
2019-03-10T09:12:02.350Z,3.02
2019-03-10T09:14:39.535Z,3.20
2019-03-10T09:17:15.010Z,2.35
2019-03-10T09:19:49.561Z,2.45
2019-03-10T09:22:20.972Z,2.70
2019-03-10T09:25:01.796Z,2.60
2019-03-10T09:27:48.498Z,2.47
2019-03-10T09:30:33.535Z,2.65
2019-03-10T09:33:07.796Z,2.65
2019-03-10T09:35:36.238Z,3.15
2019-03-10T09:38:04.775Z,2.55
2019-03-10T09:40:42.021Z,2.50
2019-03-10T09:43:16.336Z,2.90
2019-03-10T09:45:44.821Z,2.40
2019-03-10T09:48:19.451Z,2.50
2019-03-10T09:50:47.946Z,2.58
2019-03-10T09:53:19.080Z,2.70
2019-03-10T09:56:04.085Z,2.47
2019-03-10T09:58:47.729Z,2.42
2019-03-10T10:01:22.315Z,2.10
2019-03-10T10:03:59.919Z,2.08
2019-03-10T10:06:44.938Z,2.30
2019-03-10T10:09:28.595Z,1.90
2019-03-10T10:12:13.981Z,2.47
2019-03-10T10:14:45.444Z,2.87
2019-03-10T10:17:28.703Z,2.58
2019-03-10T10:20:13.876Z,2.55
2019-03-10T10:22:45.168Z,2.50
2019-03-10T10:25:19.955Z,2.55
2019-03-10T10:28:05.040Z,2.50
2019-03-10T10:30:33.576Z,2.60
2019-03-10T10:33:17.220Z,2.67
2019-03-10T10:36:02.114Z,2.55
2019-03-10T10:38:33.315Z,2.67
2019-03-10T10:41:01.827Z,3.17
2019-03-10T10:43:47.167Z,2.60
2019-03-10T10:46:32.239Z,2.65
2019-03-10T10:49:17.509Z,3.00
2019-03-10T10:52:02.679Z,2.50
2019-03-10T10:54:33.895Z,2.83
2019-03-10T10:57:05.359Z,2.20
2019-03-10T10:59:33.869Z,3.00
2019-03-10T11:02:14.399Z,2.60
2019-03-10T11:04:42.931Z,2.40
2019-03-10T11:07:14.676Z,2.50
2019-03-10T11:09:52.398Z,3.12
2019-03-10T11:12:23.647Z,2.25
2019-03-10T11:15:10.359Z,2.70
2019-03-10T11:17:41.608Z,2.87
2019-03-10T11:20:14.078Z,2.58
2019-03-10T11:22:45.450Z,2.75
2019-03-10T11:25:26.087Z,3.70
2019-03-10T11:28:11.498Z,7.87
2019-03-10T11:30:43.880Z,2.58
2019-03-10T11:33:24.744Z,2.10
2019-03-10T11:35:53.700Z,2.20
2019-03-10T11:38:37.593Z,2.33
2019-03-10T11:41:06.064Z,2.50
2019-03-10T11:43:34.587Z,3.37
2019-03-10T11:46:30.990Z,3.25
2019-03-10T11:49:16.223Z,2.27
2019-03-10T11:52:02.641Z,2.10
2019-03-10T11:54:31.198Z,3.00
2019-03-10T11:57:02.673Z,2.30
2019-03-10T11:59:40.375Z,2.85
2019-03-10T12:02:25.905Z,2.17
2019-03-10T12:04:57.299Z,2.17
2019-03-10T12:07:26.908Z,2.10
2019-03-10T12:09:53.656Z,1.72
2019-03-10T12:12:20.281Z,2.30
2019-03-10T12:14:47.038Z,2.42
2019-03-10T12:17:13.760Z,2.87
2019-03-10T12:19:40.457Z,2.65
2019-03-10T12:22:07.246Z,1.90
2019-03-10T12:24:34.090Z,3.00
2019-03-10T12:27:00.731Z,2.52
2019-03-10T12:29:27.379Z,2.40
2019-03-10T12:31:54.118Z,2.30
2019-03-10T12:34:20.735Z,2.08
2019-03-10T12:36:47.435Z,2.58
2019-03-10T12:39:14.230Z,2.70
2019-03-10T12:41:40.958Z,2.90
2019-03-10T12:44:07.593Z,2.67
2019-03-10T12:46:34.302Z,2.50
2019-03-10T12:49:00.966Z,2.35
2019-03-10T12:51:27.596Z,2.25
2019-03-10T12:53:54.306Z,2.10
2019-03-10T12:56:20.978Z,2.33
2019-03-10T12:58:47.575Z,2.42
2019-03-10T13:01:14.363Z,2.50
2019-03-10T13:03:41.329Z,2.58
2019-03-10T13:06:08.063Z,2.65
2019-03-10T13:08:34.832Z,3.37
2019-03-10T13:11:01.460Z,3.33
2019-03-10T13:13:28.357Z,3.10
2019-03-10T13:15:54.967Z,2.92
2019-03-10T13:18:21.672Z,3.85
2019-03-10T13:20:48.441Z,5.90
2019-03-10T13:23:15.223Z,3.52
2019-03-10T13:25:43.444Z,3.47
2019-03-10T13:28:11.363Z,4.17
2019-03-10T13:30:37.990Z,3.17
2019-03-10T13:33:04.730Z,3.40
2019-03-10T13:35:31.358Z,2.58
2019-03-10T13:37:58.105Z,3.92
2019-03-10T13:40:24.824Z,2.70
2019-03-10T13:42:51.490Z,3.00
2019-03-10T13:45:18.428Z,2.60
2019-03-10T13:47:45.476Z,2.40
2019-03-10T13:50:13.648Z,2.70
2019-03-10T13:52:40.388Z,2.83
2019-03-10T13:55:08.106Z,3.15
2019-03-10T13:57:34.758Z,2.85
2019-03-10T14:00:01.505Z,2.25
2019-03-10T14:02:28.512Z,3.42
2019-03-10T14:04:55.140Z,2.92
2019-03-10T14:07:21.854Z,2.77
2019-03-10T14:09:48.590Z,2.40
2019-03-10T14:12:15.228Z,2.35
2019-03-10T14:14:41.874Z,3.12
2019-03-10T14:17:08.562Z,2.95
2019-03-10T14:19:35.243Z,3.10
2019-03-10T14:22:01.943Z,2.58
2019-03-10T14:24:28.722Z,2.58
2019-03-10T14:26:55.587Z,2.90
2019-03-10T14:29:22.407Z,2.72
2019-03-10T14:31:50.190Z,3.00
2019-03-10T14:34:16.906Z,3.22
2019-03-10T14:36:43.885Z,2.80
2019-03-10T14:39:10.688Z,2.67
2019-03-10T14:41:37.593Z,2.98
2019-03-10T14:44:04.252Z,2.70
2019-03-10T14:46:31.014Z,2.92
2019-03-10T14:48:57.712Z,2.83
2019-03-10T14:51:24.329Z,2.90
2019-03-10T14:53:51.023Z,2.95
2019-03-10T14:56:17.738Z,2.70
2019-03-10T14:58:44.447Z,2.50
2019-03-10T15:01:11.352Z,2.12
2019-03-10T15:03:38.142Z,3.00
2019-03-10T15:06:04.844Z,3.42
2019-03-10T15:08:31.547Z,2.35
2019-03-10T15:10:58.309Z,3.10
2019-03-10T15:13:25.647Z,2.55
2019-03-10T15:15:52.465Z,2.30
2019-03-10T15:18:19.160Z,2.72
2019-03-10T15:20:45.883Z,2.25
2019-03-10T15:23:12.510Z,2.50
2019-03-10T15:25:39.250Z,2.58
2019-03-10T15:28:05.998Z,2.37
2019-03-10T15:30:32.651Z,3.40
2019-03-10T15:32:59.367Z,2.65
2019-03-10T15:35:26.115Z,2.27
2019-03-10T15:37:54.278Z,2.60
2019-03-10T15:40:20.984Z,2.67
2019-03-10T15:42:47.702Z,3.00
2019-03-10T15:45:15.618Z,2.95
2019-03-10T15:47:43.439Z,2.90
2019-03-10T15:50:22.447Z,2.55
2019-03-10T15:52:49.286Z,3.20
2019-03-10T15:55:15.919Z,2.40
2019-03-10T15:57:50.289Z,3.00
2019-03-10T16:00:21.842Z,3.08
2019-03-10T16:02:48.657Z,4.15
2019-03-10T16:05:15.458Z,3.72
2019-03-10T16:07:42.162Z,3.87
2019-03-10T16:10:12.552Z,3.05
2019-03-10T16:12:39.226Z,2.50
2019-03-10T16:15:14.398Z,2.90
2019-03-10T16:17:41.107Z,2.50
2019-03-10T16:20:10.033Z,2.65
2019-03-10T16:22:37.864Z,2.95
2019-03-10T16:25:10.199Z,3.02
2019-03-10T16:27:36.868Z,3.08
2019-03-10T16:30:10.242Z,3.20
2019-03-10T16:32:36.863Z,2.90
2019-03-10T16:35:05.802Z,2.60
2019-03-10T16:37:32.497Z,2.87
2019-03-10T16:39:59.198Z,2.58
2019-03-10T16:42:25.922Z,5.08
2019-03-10T16:44:52.639Z,6.10
2019-03-10T16:47:19.334Z,3.08
2019-03-10T16:49:46.032Z,3.05
2019-03-10T16:52:12.749Z,2.45
2019-03-10T16:54:39.451Z,7.35
2019-03-10T16:57:06.158Z,3.10
2019-03-10T16:59:34.208Z,3.67
2019-03-10T17:02:01.099Z,2.80
2019-03-10T17:04:27.754Z,2.83
2019-03-10T17:06:54.506Z,2.40
2019-03-10T17:09:21.111Z,3.05
2019-03-10T17:11:47.806Z,2.90
2019-03-10T17:14:14.499Z,3.02
2019-03-10T17:16:41.144Z,3.20
2019-03-10T17:19:09.644Z,3.60
2019-03-10T17:21:36.424Z,2.47
2019-03-10T17:24:03.043Z,2.58
2019-03-10T17:26:29.747Z,2.70
2019-03-10T17:28:56.441Z,2.75
2019-03-10T17:31:23.201Z,2.42
2019-03-10T17:33:50.014Z,2.60
2019-03-10T17:36:16.730Z,2.12
2019-03-10T17:38:43.367Z,2.47
2019-03-10T17:41:10.062Z,2.90
2019-03-10T17:43:36.735Z,2.60
2019-03-10T17:46:03.464Z,2.90
2019-03-10T17:48:30.161Z,2.90
2019-03-10T17:50:56.875Z,3.30
2019-03-10T17:53:23.514Z,2.83
2019-03-10T17:55:50.175Z,3.27
2019-03-10T17:58:16.966Z,3.17
2019-03-10T18:00:43.673Z,4.08
2019-03-10T18:03:10.289Z,4.10
2019-03-10T18:05:37.088Z,2.80
2019-03-10T18:08:03.697Z,2.95
2019-03-10T18:10:30.408Z,2.98
2019-03-10T18:12:57.082Z,2.60
2019-03-10T18:15:23.757Z,2.77
2019-03-10T18:17:50.428Z,3.30
2019-03-10T18:20:19.586Z,3.52
2019-03-10T18:22:46.183Z,3.70
2019-03-10T18:25:13.976Z,3.25
2019-03-10T18:27:40.642Z,3.22
2019-03-10T18:30:18.921Z,3.02
2019-03-10T18:32:45.616Z,2.72
2019-03-10T18:35:12.675Z,2.95
2019-03-10T18:37:39.494Z,2.70
2019-03-10T18:40:15.347Z,3.30
2019-03-10T18:42:42.124Z,2.98
2019-03-10T18:45:11.933Z,2.80
2019-03-10T18:47:38.633Z,3.35
2019-03-10T18:50:08.858Z,3.20
2019-03-10T18:52:35.560Z,3.40
2019-03-10T18:55:02.293Z,3.27
2019-03-10T18:57:29.029Z,3.00
2019-03-10T18:59:55.643Z,3.30
2019-03-10T19:02:22.330Z,3.27
2019-03-10T19:04:49.061Z,3.35
2019-03-10T19:07:15.688Z,3.02
2019-03-10T19:09:42.470Z,3.25
2019-03-10T19:12:09.169Z,3.47
2019-03-10T19:14:35.836Z,3.52
2019-03-10T19:17:02.495Z,3.55
2019-03-10T19:19:31.804Z,3.52
2019-03-10T19:21:57.742Z,4.53
2019-03-10T19:24:24.415Z,5.28
2019-03-10T19:26:51.106Z,3.42
2019-03-10T19:29:17.754Z,3.55
2019-03-10T19:31:45.415Z,3.90
2019-03-10T19:34:12.201Z,4.00
2019-03-10T19:36:38.914Z,5.10
2019-03-10T19:39:05.686Z,5.47
2019-03-10T19:41:34.267Z,5.05
2019-03-10T19:44:00.871Z,5.20
2019-03-10T19:46:27.587Z,6.35
2019-03-10T19:48:55.379Z,6.47
2019-03-10T19:51:22.046Z,4.92
2019-03-10T19:53:48.726Z,4.95
2019-03-10T19:56:15.456Z,5.35
2019-03-10T19:58:42.100Z,5.20
2019-03-10T20:01:08.772Z,4.83
2019-03-10T20:03:35.452Z,3.98
2019-03-10T20:06:02.091Z,4.30
2019-03-10T20:08:28.855Z,4.62
2019-03-10T20:10:55.686Z,5.10
2019-03-10T20:13:22.486Z,4.55
2019-03-10T20:15:52.583Z,4.40
2019-03-10T20:18:18.879Z,4.15
2019-03-10T20:20:46.531Z,4.53
2019-03-10T20:23:13.255Z,4.33
2019-03-10T20:25:39.981Z,5.47
2019-03-10T20:28:09.118Z,4.05
2019-03-10T20:30:35.256Z,4.42
2019-03-10T20:33:01.955Z,4.25
2019-03-10T20:35:28.718Z,4.40
2019-03-10T20:37:55.424Z,3.77
2019-03-10T20:40:24.358Z,5.20
2019-03-10T20:42:51.103Z,4.67
2019-03-10T20:45:17.724Z,5.00
2019-03-10T20:47:44.437Z,4.75
2019-03-10T20:50:19.542Z,4.55
2019-03-10T20:52:46.258Z,4.37
2019-03-10T20:55:13.655Z,4.00
2019-03-10T20:57:40.403Z,4.70
2019-03-10T21:00:21.855Z,4.30
2019-03-10T21:02:48.543Z,3.80
2019-03-10T21:05:15.251Z,4.03
2019-03-10T21:07:42.946Z,4.55
2019-03-10T21:10:12.566Z,3.95
2019-03-10T21:12:41.834Z,4.72
2019-03-10T21:15:12.757Z,6.55
2019-03-10T21:17:39.398Z,4.53
2019-03-10T21:20:12.347Z,5.62
2019-03-10T21:22:38.957Z,5.30
2019-03-10T21:25:09.069Z,5.22
2019-03-10T21:27:38.357Z,5.62
2019-03-10T21:30:10.680Z,5.35
2019-03-10T21:32:38.412Z,6.00
2019-03-10T21:35:05.122Z,6.72
2019-03-10T21:37:31.805Z,7.10
2019-03-10T21:39:58.502Z,8.45
2019-03-10T21:42:25.199Z,6.00
2019-03-10T21:44:51.845Z,4.65
2019-03-10T21:47:18.479Z,5.28
2019-03-10T21:49:45.190Z,5.22
2019-03-10T21:52:11.927Z,6.85
2019-03-10T21:54:38.628Z,6.50
2019-03-10T21:57:05.361Z,5.90
2019-03-10T21:59:33.015Z,5.85
2019-03-10T22:01:59.713Z,5.53
2019-03-10T22:04:26.428Z,5.00
2019-03-10T22:06:53.128Z,4.62
2019-03-10T22:09:19.868Z,5.12
2019-03-10T22:11:46.595Z,5.65
2019-03-10T22:14:13.233Z,6.70
2019-03-10T22:16:39.914Z,5.60
2019-03-10T22:19:06.618Z,5.55
2019-03-10T22:21:33.323Z,6.28
2019-03-10T22:24:00.199Z,6.12
2019-03-10T22:26:26.875Z,5.85
2019-03-10T22:28:53.642Z,5.50
2019-03-10T22:31:20.397Z,4.97
2019-03-10T22:33:47.258Z,5.20
2019-03-10T22:36:13.856Z,5.30
2019-03-10T22:38:40.682Z,5.17
2019-03-10T22:41:07.579Z,5.70
2019-03-10T22:43:34.215Z,5.28
2019-03-10T22:46:00.908Z,5.25
2019-03-10T22:48:27.593Z,5.15
2019-03-10T22:50:54.297Z,5.47
2019-03-10T22:53:20.941Z,6.20
2019-03-10T22:55:47.703Z,6.17
2019-03-10T22:58:14.331Z,5.70
2019-03-10T23:00:45.676Z,5.28
2019-03-10T23:03:12.571Z,6.67
2019-03-10T23:05:41.655Z,5.50
2019-03-10T23:08:08.763Z,5.78
2019-03-10T23:10:35.509Z,5.60
2019-03-10T23:13:02.119Z,6.03
2019-03-10T23:15:28.815Z,5.60
2019-03-10T23:17:55.528Z,5.83
2019-03-10T23:20:22.261Z,5.60
2019-03-10T23:22:49.003Z,5.70
2019-03-10T23:25:15.742Z,6.03
2019-03-10T23:27:42.683Z,5.45
2019-03-10T23:30:12.498Z,5.53
2019-03-10T23:32:39.238Z,5.30
2019-03-10T23:35:05.874Z,5.20
2019-03-10T23:37:32.551Z,5.60
2019-03-10T23:40:00.355Z,5.37
2019-03-10T23:42:27.117Z,4.55
2019-03-10T23:44:53.867Z,5.05
2019-03-10T23:47:20.703Z,5.90
2019-03-10T23:49:47.343Z,5.28
2019-03-10T23:52:15.017Z,5.87
2019-03-10T23:54:41.742Z,5.65
2019-03-10T23:57:08.400Z,5.70
2019-03-10T23:59:35.219Z,5.70
